createdAt,value
2019-01-29T00:00:44.511Z,67.13
2019-01-29T00:03:15.286Z,70.93
2019-01-29T00:05:45.745Z,72.67
2019-01-29T00:08:16.307Z,69.33
2019-01-29T00:10:46.813Z,73.63
2019-01-29T00:13:17.277Z,70.23
2019-01-29T00:15:47.745Z,72.47
2019-01-29T00:18:18.285Z,71.77
2019-01-29T00:20:48.749Z,70.53
2019-01-29T00:23:19.245Z,66.67
2019-01-29T00:25:49.808Z,66.97
2019-01-29T00:28:20.410Z,66.53
2019-01-29T00:30:50.874Z,64.60
2019-01-29T00:33:21.359Z,66.70
2019-01-29T00:35:51.808Z,63.80
2019-01-29T00:38:22.308Z,63.93
2019-01-29T00:40:52.789Z,65.70
2019-01-29T00:43:23.284Z,63.37
2019-01-29T00:45:53.842Z,60.97
2019-01-29T00:48:24.332Z,60.43
2019-01-29T00:50:54.854Z,58.80
2019-01-29T00:53:25.508Z,58.90
2019-01-29T00:55:55.976Z,60.00
2019-01-29T00:58:26.473Z,60.13
2019-01-29T01:00:57.030Z,64.07
2019-01-29T01:03:27.477Z,63.97
2019-01-29T01:05:57.960Z,58.60
2019-01-29T01:08:28.448Z,60.37
2019-01-29T01:10:58.893Z,58.70
2019-01-29T01:13:29.382Z,58.97
2019-01-29T01:15:59.842Z,63.93
2019-01-29T01:18:30.340Z,63.63
2019-01-29T01:21:00.892Z,68.50
2019-01-29T01:23:31.394Z,69.97
2019-01-29T01:26:01.858Z,70.27
2019-01-29T01:28:32.358Z,68.93
2019-01-29T01:31:02.950Z,70.97
2019-01-29T01:33:33.416Z,65.67
2019-01-29T01:36:03.932Z,69.10
2019-01-29T01:38:34.409Z,71.73
2019-01-29T01:41:04.990Z,68.83
2019-01-29T01:43:35.484Z,66.90
2019-01-29T01:46:05.945Z,71.83
2019-01-29T01:48:36.404Z,69.00
2019-01-29T01:51:06.866Z,68.67
2019-01-29T01:53:37.365Z,67.80
2019-01-29T01:56:07.824Z,69.03
2019-01-29T01:58:38.287Z,64.87
2019-01-29T02:01:08.891Z,67.93
2019-01-29T02:03:39.350Z,63.07
2019-01-29T02:06:09.849Z,61.93
2019-01-29T02:08:40.302Z,59.33
2019-01-29T02:11:10.893Z,58.20
2019-01-29T02:13:41.497Z,59.23
2019-01-29T02:16:11.964Z,59.43
2019-01-29T02:18:42.427Z,60.57
2019-01-29T02:21:12.938Z,58.83
2019-01-29T02:23:43.425Z,62.37
2019-01-29T02:26:13.890Z,57.23
2019-01-29T02:28:44.378Z,56.83
2019-01-29T02:31:14.853Z,56.07
2019-01-29T02:33:45.333Z,52.17
2019-01-29T02:36:15.842Z,55.53
2019-01-29T02:38:46.292Z,51.67
2019-01-29T02:41:16.946Z,49.23
2019-01-29T02:43:47.422Z,51.33
2019-01-29T02:46:18.093Z,49.60
2019-01-29T02:48:48.614Z,49.23
2019-01-29T02:51:19.121Z,48.60
2019-01-29T02:53:49.583Z,48.23
2019-01-29T02:56:20.043Z,47.83
2019-01-29T02:58:50.534Z,49.67
2019-01-29T03:01:21.085Z,47.17
2019-01-29T03:03:51.589Z,46.93
2019-01-29T03:06:22.146Z,45.77
2019-01-29T03:08:52.657Z,47.80
2019-01-29T03:11:23.152Z,45.97
2019-01-29T03:13:55.258Z,49.27
2019-01-29T03:16:25.753Z,46.57
2019-01-29T03:18:56.255Z,46.53
2019-01-29T03:21:26.730Z,48.50
2019-01-29T03:23:57.193Z,49.47
2019-01-29T03:26:27.703Z,51.37
2019-01-29T03:28:58.194Z,48.30
2019-01-29T03:31:28.659Z,46.97
2019-01-29T03:33:59.158Z,50.07
2019-01-29T03:36:29.621Z,43.63
2019-01-29T03:39:00.159Z,45.67
2019-01-29T03:41:30.668Z,44.37
2019-01-29T03:44:01.133Z,44.77
2019-01-29T03:46:31.633Z,44.57
2019-01-29T03:49:02.099Z,41.87
2019-01-29T03:51:32.601Z,41.47
2019-01-29T03:54:03.083Z,38.27
2019-01-29T03:56:33.579Z,38.87
2019-01-29T03:59:04.132Z,37.53
2019-01-29T04:01:34.668Z,38.93
2019-01-29T04:04:05.237Z,37.23
2019-01-29T04:06:35.729Z,38.13
2019-01-29T04:09:09.290Z,36.53
2019-01-29T04:11:39.885Z,35.60
2019-01-29T04:14:10.475Z,36.63
2019-01-29T04:16:40.989Z,36.10
2019-01-29T04:19:11.487Z,38.27
2019-01-29T04:21:42.063Z,36.77
2019-01-29T04:24:12.573Z,37.63
2019-01-29T04:26:43.100Z,38.00
2019-01-29T04:29:13.541Z,37.90
2019-01-29T04:31:44.029Z,37.17
2019-01-29T04:34:14.531Z,37.17
2019-01-29T04:36:44.998Z,37.47
2019-01-29T04:39:15.537Z,38.97
2019-01-29T04:41:46.098Z,41.87
2019-01-29T04:44:16.614Z,36.93
2019-01-29T04:46:47.080Z,38.03
2019-01-29T04:49:17.538Z,39.40
2019-01-29T04:51:48.053Z,38.47
2019-01-29T04:54:18.559Z,36.47
2019-01-29T04:56:49.063Z,37.83
2019-01-29T04:59:19.517Z,38.23
2019-01-29T05:01:50.113Z,38.73
2019-01-29T05:04:20.576Z,39.03
2019-01-29T05:06:51.048Z,38.90
2019-01-29T05:09:21.543Z,37.67
2019-01-29T05:11:52.014Z,39.47
2019-01-29T05:14:22.519Z,39.90
2019-01-29T05:16:52.976Z,38.07
2019-01-29T05:19:23.494Z,38.97
2019-01-29T05:21:53.956Z,42.37
2019-01-29T05:24:24.957Z,41.30
2019-01-29T05:26:55.407Z,43.37
2019-01-29T05:29:25.873Z,44.73
2019-01-29T05:31:56.381Z,44.90
2019-01-29T05:34:26.891Z,43.20
2019-01-29T05:36:57.347Z,42.80
2019-01-29T05:39:27.815Z,40.17
2019-01-29T05:41:58.320Z,39.40
2019-01-29T05:44:28.905Z,37.97
2019-01-29T05:46:59.409Z,38.67
2019-01-29T05:49:29.916Z,39.20
2019-01-29T05:52:00.430Z,40.83
2019-01-29T05:54:30.896Z,41.77
2019-01-29T05:57:01.405Z,40.83
2019-01-29T05:59:31.910Z,41.03
2019-01-29T06:02:02.372Z,39.30
2019-01-29T06:04:32.860Z,42.90
2019-01-29T06:07:03.412Z,41.70
2019-01-29T06:09:33.917Z,44.13
2019-01-29T06:12:04.585Z,41.67
2019-01-29T06:14:35.195Z,44.43
2019-01-29T06:17:05.915Z,45.40
2019-01-29T06:19:36.385Z,46.13
2019-01-29T06:22:06.950Z,45.10
2019-01-29T06:24:37.454Z,48.20
2019-01-29T06:27:08.016Z,46.57
2019-01-29T06:29:38.736Z,47.70
2019-01-29T06:32:09.191Z,44.93
2019-01-29T06:34:39.769Z,45.40
2019-01-29T06:37:10.288Z,47.50
2019-01-29T06:39:40.758Z,46.67
2019-01-29T06:42:11.395Z,45.07
2019-01-29T06:44:41.892Z,44.57
2019-01-29T06:47:12.357Z,43.93
2019-01-29T06:49:42.987Z,45.70
2019-01-29T06:52:13.476Z,45.57
2019-01-29T06:54:43.955Z,45.73
2019-01-29T06:57:14.518Z,45.43
2019-01-29T06:59:45.023Z,46.63
2019-01-29T07:02:15.551Z,46.60
2019-01-29T07:04:46.087Z,51.03
2019-01-29T07:07:16.606Z,52.17
2019-01-29T07:09:47.270Z,55.63
2019-01-29T07:12:17.840Z,53.47
2019-01-29T07:14:48.351Z,53.20
2019-01-29T07:17:28.882Z,55.37
2019-01-29T07:20:01.831Z,52.83
2019-01-29T07:22:32.383Z,54.50
2019-01-29T07:25:02.964Z,54.77
2019-01-29T07:27:33.642Z,56.57
2019-01-29T07:30:05.557Z,64.27
2019-01-29T07:32:36.032Z,71.27
2019-01-29T07:35:07.085Z,84.47
2019-01-29T07:37:37.668Z,86.40
2019-01-29T07:40:08.527Z,75.67
2019-01-29T07:42:39.052Z,68.13
2019-01-29T07:45:10.475Z,60.10
2019-01-29T07:47:41.057Z,57.43
2019-01-29T07:50:11.786Z,55.90
2019-01-29T07:52:42.346Z,55.50
2019-01-29T07:55:13.065Z,55.93
2019-01-29T07:57:43.550Z,57.30
2019-01-29T08:00:14.261Z,59.00
2019-01-29T08:02:44.869Z,59.60
2019-01-29T08:05:15.577Z,62.13
2019-01-29T08:07:46.136Z,66.37
2019-01-29T08:10:16.920Z,68.10
2019-01-29T08:12:47.497Z,64.77
2019-01-29T08:15:18.717Z,62.40
2019-01-29T08:17:49.416Z,58.93
2019-01-29T08:20:20.108Z,55.17
2019-01-29T08:22:50.650Z,58.57
2019-01-29T08:25:21.139Z,58.53
2019-01-29T08:27:51.785Z,53.33
2019-01-29T08:30:22.356Z,54.87
2019-01-29T08:32:52.877Z,60.53
2019-01-29T08:35:23.428Z,62.60
2019-01-29T08:37:53.920Z,52.00
2019-01-29T08:40:24.434Z,54.30
2019-01-29T08:42:54.924Z,52.50
2019-01-29T08:45:25.434Z,49.10
2019-01-29T08:47:55.937Z,43.00
2019-01-29T08:50:26.749Z,40.73
2019-01-29T08:52:57.255Z,40.43
2019-01-29T08:55:27.827Z,43.27
2019-01-29T08:57:58.331Z,40.97
2019-01-29T09:00:28.954Z,38.07
2019-01-29T09:02:59.451Z,38.93
2019-01-29T09:05:29.935Z,43.20
2019-01-29T09:08:00.544Z,40.43
2019-01-29T09:10:31.125Z,37.47
2019-01-29T09:13:01.625Z,35.87
2019-01-29T09:15:32.137Z,36.60
2019-01-29T09:18:02.641Z,34.73
2019-01-29T09:20:33.211Z,34.40
2019-01-29T09:23:03.735Z,36.43
2019-01-29T09:25:34.197Z,35.90
2019-01-29T09:28:04.833Z,36.73
2019-01-29T09:30:35.424Z,33.03
2019-01-29T09:33:06.422Z,32.43
2019-01-29T09:35:36.991Z,34.50
2019-01-29T09:38:07.517Z,35.13
2019-01-29T09:40:38.031Z,36.57
2019-01-29T09:43:08.653Z,34.43
2019-01-29T09:45:39.274Z,35.47
2019-01-29T09:48:09.858Z,37.90
2019-01-29T09:50:40.384Z,32.33
2019-01-29T09:53:11.053Z,32.83
2019-01-29T09:55:41.598Z,36.00
2019-01-29T09:58:12.088Z,37.77
2019-01-29T10:00:42.728Z,45.23
2019-01-29T10:03:13.275Z,45.67
2019-01-29T10:05:44.016Z,49.00
2019-01-29T10:08:14.492Z,50.60
2019-01-29T10:10:44.977Z,48.57
2019-01-29T10:13:15.589Z,45.63
2019-01-29T10:15:46.350Z,42.90
2019-01-29T10:18:16.949Z,41.47
2019-01-29T10:20:47.463Z,40.40
2019-01-29T10:23:17.937Z,41.30
2019-01-29T10:25:48.405Z,41.23
2019-01-29T10:28:18.963Z,39.23
2019-01-29T10:30:49.423Z,40.57
2019-01-29T10:33:19.890Z,40.33
2019-01-29T10:35:50.423Z,39.70
2019-01-29T10:38:21.013Z,39.07
2019-01-29T10:40:51.554Z,40.90
2019-01-29T10:43:22.135Z,37.70
2019-01-29T10:45:52.815Z,38.13
2019-01-29T10:48:23.363Z,37.77
2019-01-29T10:50:54.047Z,37.73
2019-01-29T10:53:24.570Z,36.93
2019-01-29T10:55:55.061Z,35.63
2019-01-29T10:58:25.752Z,37.50
2019-01-29T11:00:56.497Z,36.27
2019-01-29T11:03:28.805Z,36.57
2019-01-29T11:05:59.677Z,37.97
2019-01-29T11:08:30.621Z,36.10
2019-01-29T11:11:01.540Z,34.27
2019-01-29T11:13:32.054Z,35.83
2019-01-29T11:16:02.618Z,37.77
2019-01-29T11:18:33.629Z,37.07
2019-01-29T11:21:04.640Z,37.70
2019-01-29T11:23:35.506Z,39.00
2019-01-29T11:26:08.046Z,38.10
2019-01-29T11:28:39.067Z,36.50
2019-01-29T11:31:10.127Z,36.03
2019-01-29T11:33:41.200Z,37.90
2019-01-29T11:36:12.209Z,34.63
2019-01-29T11:38:43.175Z,36.63
2019-01-29T11:41:14.378Z,36.77
2019-01-29T11:43:45.443Z,36.00
2019-01-29T11:46:16.687Z,37.03
2019-01-29T11:48:47.548Z,36.30
2019-01-29T11:51:18.858Z,37.57
2019-01-29T11:53:51.257Z,35.13
2019-01-29T11:56:22.300Z,37.33
2019-01-29T11:58:54.884Z,35.40
2019-01-29T12:01:30.051Z,35.80
2019-01-29T12:04:07.502Z,35.33
2019-01-29T12:06:50.044Z,41.73
2019-01-29T12:09:33.434Z,34.80
2019-01-29T12:12:14.126Z,35.37
2019-01-29T12:17:58.460Z,36.63
2019-01-29T12:20:53.199Z,37.53
2019-01-29T12:23:33.660Z,35.03
2019-01-29T12:26:13.702Z,37.03
2019-01-29T12:29:13.515Z,36.87
2019-01-29T12:32:32.402Z,37.43
2019-01-29T12:35:40.758Z,36.10
2019-01-29T12:38:22.925Z,36.00
2019-01-29T12:41:23.902Z,38.03
2019-01-29T12:44:24.587Z,37.07
2019-01-29T12:47:30.179Z,36.87
2019-01-29T12:50:28.645Z,37.47
2019-01-29T12:56:43.430Z,38.37
2019-01-29T12:59:33.600Z,37.63
2019-01-29T13:02:11.567Z,37.63
2019-01-29T13:04:52.352Z,38.40
2019-01-29T13:07:52.324Z,37.60
2019-01-29T13:10:49.660Z,38.27
2019-01-29T13:13:30.631Z,36.47
2019-01-29T13:16:29.755Z,36.33
2019-01-29T13:19:30.154Z,35.93
2019-01-29T13:22:11.157Z,35.80
2019-01-29T13:25:06.626Z,36.93
2019-01-29T13:27:43.130Z,36.73
2019-01-29T13:33:40.443Z,38.27
2019-01-29T13:36:19.778Z,37.20
2019-01-29T13:39:11.493Z,36.10
2019-01-29T13:41:58.012Z,36.97
2019-01-29T13:44:45.451Z,39.20
2019-01-29T13:47:27.163Z,37.83
2019-01-29T13:50:17.655Z,36.57
2019-01-29T13:53:01.960Z,37.57
2019-01-29T13:55:54.403Z,37.77
2019-01-29T13:58:32.221Z,36.33
2019-01-29T14:01:16.189Z,37.10
2019-01-29T14:04:05.821Z,36.77
2019-01-29T14:06:41.232Z,37.87
2019-01-29T14:09:35.899Z,36.83
2019-01-29T14:12:10.558Z,36.83
2019-01-29T14:15:03.552Z,37.60
2019-01-29T14:17:37.411Z,39.07
2019-01-29T14:20:15.397Z,38.47
2019-01-29T14:23:12.037Z,38.20
2019-01-29T14:25:44.122Z,37.17
2019-01-29T14:28:28.803Z,38.33
2019-01-29T14:31:11.256Z,37.33
2019-01-29T14:34:06.611Z,37.77
2019-01-29T14:36:54.096Z,36.20
2019-01-29T14:40:29.790Z,37.43
2019-01-29T14:43:19.066Z,38.77
2019-01-29T14:46:11.537Z,36.97
2019-01-29T14:49:14.806Z,37.97
2019-01-29T14:52:14.263Z,37.93
2019-01-29T14:54:55.404Z,38.47
2019-01-29T14:57:36.826Z,39.07
2019-01-29T15:00:22.474Z,38.73
2019-01-29T15:02:53.324Z,39.60
2019-01-29T15:05:27.998Z,36.80
2019-01-29T15:07:58.950Z,37.73
2019-01-29T15:10:30.062Z,36.10
2019-01-29T15:13:01.040Z,36.17
2019-01-29T15:15:33.134Z,36.90
2019-01-29T15:18:12.713Z,38.83
2019-01-29T15:20:43.285Z,37.03
2019-01-29T15:23:14.574Z,37.30
2019-01-29T15:25:45.047Z,38.97
2019-01-29T15:28:15.573Z,39.83
2019-01-29T15:30:46.175Z,39.47
2019-01-29T15:33:16.684Z,36.63
2019-01-29T15:35:47.311Z,39.43
2019-01-29T15:38:17.880Z,38.37
2019-01-29T15:40:48.378Z,39.13
2019-01-29T15:43:18.840Z,36.93
2019-01-29T15:45:49.340Z,40.23
2019-01-29T15:48:19.914Z,40.53
2019-01-29T15:50:50.422Z,39.20
2019-01-29T15:53:21.062Z,40.27
2019-01-29T15:55:51.647Z,40.93
2019-01-29T15:58:22.381Z,40.60
2019-01-29T16:00:52.864Z,42.30
2019-01-29T16:03:23.478Z,39.43
2019-01-29T16:05:53.945Z,39.77
2019-01-29T16:08:24.458Z,39.67
2019-01-29T16:10:54.955Z,39.23
2019-01-29T16:13:25.407Z,49.13
2019-01-29T16:15:55.942Z,47.30
2019-01-29T16:18:26.545Z,52.67
2019-01-29T16:20:56.995Z,51.17
2019-01-29T16:23:27.492Z,51.57
2019-01-29T16:25:57.950Z,50.00
2019-01-29T16:28:28.455Z,47.83
2019-01-29T16:30:58.942Z,47.63
2019-01-29T16:33:29.563Z,48.23
2019-01-29T16:36:00.032Z,46.33
2019-01-29T16:38:30.531Z,48.50
2019-01-29T16:41:01.035Z,47.57
2019-01-29T16:43:31.498Z,51.27
2019-01-29T16:46:01.995Z,47.70
2019-01-29T16:48:32.511Z,50.73
2019-01-29T16:51:03.034Z,49.40
2019-01-29T16:53:33.491Z,50.37
2019-01-29T16:56:04.091Z,50.50
2019-01-29T16:58:34.546Z,50.47
2019-01-29T17:01:05.622Z,56.97
2019-01-29T17:03:36.078Z,54.30
2019-01-29T17:06:06.787Z,53.80
2019-01-29T17:08:37.288Z,51.87
2019-01-29T17:11:07.893Z,50.70
2019-01-29T17:13:38.489Z,52.40
2019-01-29T17:16:09.160Z,52.40
2019-01-29T17:18:39.643Z,51.17
2019-01-29T17:21:10.107Z,49.37
2019-01-29T17:23:40.598Z,52.17
2019-01-29T17:26:11.101Z,50.20
2019-01-29T17:28:41.616Z,52.20
2019-01-29T17:31:12.089Z,58.03
2019-01-29T17:33:42.612Z,54.13
2019-01-29T17:36:13.165Z,52.47
2019-01-29T17:38:44.769Z,50.30
2019-01-29T17:41:15.583Z,52.93
2019-01-29T17:43:46.091Z,52.73
2019-01-29T17:46:16.556Z,52.57
2019-01-29T17:48:47.048Z,50.17
2019-01-29T17:51:17.561Z,53.37
2019-01-29T17:53:48.042Z,54.30
2019-01-29T17:56:18.554Z,55.30
2019-01-29T17:58:49.020Z,52.30
2019-01-29T18:01:19.581Z,52.50
2019-01-29T18:03:50.042Z,50.50
2019-01-29T18:06:20.540Z,52.67
2019-01-29T18:08:51.038Z,52.00
2019-01-29T18:11:21.525Z,52.83
2019-01-29T18:13:52.022Z,52.47
2019-01-29T18:16:22.476Z,53.10
2019-01-29T18:18:52.989Z,54.00
2019-01-29T18:21:23.547Z,53.97
2019-01-29T18:23:55.376Z,54.93
2019-01-29T18:26:25.827Z,56.37
2019-01-29T18:28:56.278Z,54.90
2019-01-29T18:31:26.778Z,60.73
2019-01-29T18:33:57.394Z,52.30
2019-01-29T18:36:27.857Z,52.80
2019-01-29T18:38:58.380Z,54.40
2019-01-29T18:41:28.945Z,54.07
2019-01-29T18:43:59.405Z,56.60
2019-01-29T18:46:29.939Z,55.83
2019-01-29T18:49:00.394Z,59.10
2019-01-29T18:51:30.898Z,61.33
2019-01-29T18:54:01.400Z,57.27
2019-01-29T18:56:31.856Z,58.07
2019-01-29T18:59:02.317Z,60.53
2019-01-29T19:01:32.931Z,56.93
2019-01-29T19:04:03.395Z,56.70
2019-01-29T19:06:33.850Z,57.70
2019-01-29T19:09:05.876Z,59.00
2019-01-29T19:11:36.507Z,57.87
2019-01-29T19:14:07.104Z,58.40
2019-01-29T19:16:37.555Z,56.37
2019-01-29T19:19:08.041Z,57.33
2019-01-29T19:21:38.548Z,59.47
2019-01-29T19:24:09.033Z,60.07
2019-01-29T19:26:39.541Z,62.30
2019-01-29T19:29:10.011Z,61.93
2019-01-29T19:31:40.547Z,61.47
2019-01-29T19:34:11.225Z,59.33
2019-01-29T19:36:41.652Z,59.77
2019-01-29T19:39:12.315Z,59.10
2019-01-29T19:41:42.826Z,55.13
2019-01-29T19:44:13.293Z,58.33
2019-01-29T19:46:43.912Z,61.00
2019-01-29T19:49:14.552Z,58.93
2019-01-29T19:51:45.273Z,60.90
2019-01-29T19:54:15.777Z,66.53
2019-01-29T19:56:46.254Z,59.47
2019-01-29T19:59:16.748Z,64.50
2019-01-29T20:01:47.209Z,62.77
2019-01-29T20:04:17.772Z,63.43
2019-01-29T20:06:48.383Z,63.33
2019-01-29T20:09:18.835Z,61.77
2019-01-29T20:11:49.456Z,60.73
2019-01-29T20:14:19.922Z,59.47
2019-01-29T20:16:50.403Z,59.50
2019-01-29T20:19:20.907Z,57.37
2019-01-29T20:21:51.398Z,61.67
2019-01-29T20:24:22.108Z,59.50
2019-01-29T20:26:52.610Z,61.60
2019-01-29T20:29:23.172Z,60.67
2019-01-29T20:31:53.644Z,64.60
2019-01-29T20:34:24.244Z,58.93
2019-01-29T20:36:54.734Z,58.30
2019-01-29T20:39:34.491Z,55.03
2019-01-29T20:41:57.477Z,54.17
2019-01-29T20:44:27.932Z,51.93
2019-01-29T20:46:58.429Z,47.83
2019-01-29T20:49:28.893Z,45.57
2019-01-29T20:51:59.402Z,68.17
2019-01-29T20:54:29.908Z,45.00
2019-01-29T20:57:00.378Z,48.73
2019-01-29T20:59:30.890Z,52.00
2019-01-29T21:02:01.397Z,49.50
2019-01-29T21:04:31.853Z,48.73
2019-01-29T21:07:02.360Z,43.60
2019-01-29T21:09:33.333Z,41.90
2019-01-29T21:12:04.206Z,42.20
2019-01-29T21:14:34.741Z,40.87
2019-01-29T21:17:05.309Z,41.10
2019-01-29T21:19:35.774Z,47.30
2019-01-29T21:22:06.476Z,41.83
2019-01-29T21:24:36.940Z,43.10
2019-01-29T21:27:07.716Z,44.03
2019-01-29T21:29:38.207Z,42.47
2019-01-29T21:32:08.773Z,40.60
2019-01-29T21:34:39.279Z,44.03
2019-01-29T21:37:09.864Z,46.40
2019-01-29T21:39:40.411Z,46.17
2019-01-29T21:42:10.879Z,45.73
2019-01-29T21:44:41.390Z,45.10
2019-01-29T21:47:11.885Z,46.27
2019-01-29T21:49:42.386Z,46.23
2019-01-29T21:52:12.855Z,45.13
2019-01-29T21:54:43.348Z,46.23
2019-01-29T21:57:13.921Z,48.40
2019-01-29T21:59:44.401Z,48.97
2019-01-29T22:02:14.858Z,47.63
2019-01-29T22:04:45.351Z,55.50
2019-01-29T22:07:15.861Z,53.60
2019-01-29T22:09:46.354Z,56.27
2019-01-29T22:12:16.855Z,57.27
2019-01-29T22:14:47.354Z,66.37
2019-01-29T22:17:17.892Z,61.57
2019-01-29T22:19:48.419Z,58.20
2019-01-29T22:22:18.887Z,60.93
2019-01-29T22:24:49.350Z,60.37
2019-01-29T22:27:19.836Z,66.83
2019-01-29T22:29:54.381Z,69.43
2019-01-29T22:32:24.884Z,67.43
2019-01-29T22:34:55.345Z,66.93
2019-01-29T22:37:25.802Z,57.17
2019-01-29T22:39:56.306Z,67.93
2019-01-29T22:42:26.766Z,66.73
2019-01-29T22:44:57.274Z,68.70
2019-01-29T22:47:27.729Z,68.37
2019-01-29T22:49:58.275Z,75.77
2019-01-29T22:52:28.740Z,76.53
2019-01-29T22:54:59.217Z,82.90
2019-01-29T22:57:29.836Z,85.83
2019-01-29T23:00:00.316Z,86.43
2019-01-29T23:02:30.893Z,89.27
2019-01-29T23:05:01.385Z,84.47
2019-01-29T23:07:35.098Z,89.27
2019-01-29T23:10:10.407Z,102.43
2019-01-29T23:12:40.870Z,90.90
2019-01-29T23:15:13.710Z,98.70
2019-01-29T23:17:44.273Z,90.90
2019-01-29T23:20:15.516Z,89.07
2019-01-29T23:22:45.994Z,89.83
2019-01-29T23:25:16.452Z,86.53
2019-01-29T23:27:46.965Z,87.23
2019-01-29T23:30:18.803Z,91.83
2019-01-29T23:32:49.313Z,87.30
2019-01-29T23:35:19.872Z,79.77
2019-01-29T23:37:50.322Z,86.53
2019-01-29T23:40:20.913Z,85.33
2019-01-29T23:42:51.429Z,88.27
2019-01-29T23:45:21.988Z,87.23
2019-01-29T23:48:00.633Z,82.50
2019-01-29T23:50:32.126Z,89.77
2019-01-29T23:53:02.629Z,88.13
2019-01-29T23:55:33.148Z,79.60
2019-01-29T23:58:03.611Z,78.87
